sensor_id;sensor_type;location;lat;lon;timestamp;pressure;altitude;pressure_sealevel;temperature;humidity
38880;BME280;25887;30.194;-97.880;2022-09-01T00:01:15;98470.88;;;32.15;49.01
38880;BME280;25887;30.194;-97.880;2022-09-01T00:03:45;98495.53;;;31.97;48.92
38880;BME280;25887;30.194;-97.880;2022-09-01T00:06:14;98506.63;;;31.81;49.15
38880;BME280;25887;30.194;-97.880;2022-09-01T00:08:40;98505.25;;;31.66;49.77
38880;BME280;25887;30.194;-97.880;2022-09-01T00:11:06;98512.59;;;31.52;49.85
38880;BME280;25887;30.194;-97.880;2022-09-01T00:13:32;98499.63;;;31.38;50.00
38880;BME280;25887;30.194;-97.880;2022-09-01T00:15:59;98503.97;;;31.28;50.12
38880;BME280;25887;30.194;-97.880;2022-09-01T00:18:26;98490.72;;;31.17;50.30
38880;BME280;25887;30.194;-97.880;2022-09-01T00:20:52;98486.19;;;31.08;50.44
38880;BME280;25887;30.194;-97.880;2022-09-01T00:23:24;98487.06;;;30.97;50.51
38880;BME280;25887;30.194;-97.880;2022-09-01T00:25:50;98484.44;;;30.86;50.73
38880;BME280;25887;30.194;-97.880;2022-09-01T00:28:15;98499.31;;;30.77;50.70
38880;BME280;25887;30.194;-97.880;2022-09-01T00:30:41;98503.41;;;30.70;50.98
38880;BME280;25887;30.194;-97.880;2022-09-01T00:33:07;98512.09;;;30.61;51.30
38880;BME280;25887;30.194;-97.880;2022-09-01T00:35:33;98527.63;;;30.54;51.31
38880;BME280;25887;30.194;-97.880;2022-09-01T00:37:59;98546.81;;;30.46;51.43
38880;BME280;25887;30.194;-97.880;2022-09-01T00:40:24;98572.81;;;30.41;51.58
38880;BME280;25887;30.194;-97.880;2022-09-01T00:42:50;98646.69;;;30.35;52.41
38880;BME280;25887;30.194;-97.880;2022-09-01T00:45:18;98651.25;;;30.21;52.71
38880;BME280;25887;30.194;-97.880;2022-09-01T00:47:46;98674.75;;;30.02;52.47
38880;BME280;25887;30.194;-97.880;2022-09-01T00:50:13;98660.94;;;29.75;52.53
38880;BME280;25887;30.194;-97.880;2022-09-01T00:52:42;98661.78;;;29.51;52.72
38880;BME280;25887;30.194;-97.880;2022-09-01T00:55:11;98679.06;;;29.31;52.84
38880;BME280;25887;30.194;-97.880;2022-09-01T00:57:38;98675.31;;;29.10;53.05
38880;BME280;25887;30.194;-97.880;2022-09-01T01:00:09;98655.56;;;28.90;52.84
38880;BME280;25887;30.194;-97.880;2022-09-01T01:02:36;98663.91;;;28.71;53.15
38880;BME280;25887;30.194;-97.880;2022-09-01T01:05:03;98658.81;;;28.55;53.38
38880;BME280;25887;30.194;-97.880;2022-09-01T01:07:29;98653.44;;;28.44;53.36
38880;BME280;25887;30.194;-97.880;2022-09-01T01:09:57;98654.28;;;28.32;53.14
38880;BME280;25887;30.194;-97.880;2022-09-01T01:12:23;98639.34;;;28.18;53.41
38880;BME280;25887;30.194;-97.880;2022-09-01T01:14:52;98630.34;;;28.08;53.89
38880;BME280;25887;30.194;-97.880;2022-09-01T01:17:18;98629.16;;;27.99;53.88
38880;BME280;25887;30.194;-97.880;2022-09-01T01:19:46;98626.09;;;27.93;53.67
38880;BME280;25887;30.194;-97.880;2022-09-01T01:25:40;98624.16;;;27.82;54.13
38880;BME280;25887;30.194;-97.880;2022-09-01T01:28:14;98627.03;;;27.79;53.75
38880;BME280;25887;30.194;-97.880;2022-09-01T01:30:45;98621.75;;;27.79;53.84
38880;BME280;25887;30.194;-97.880;2022-09-01T01:33:15;98612.88;;;27.80;53.90
38880;BME280;25887;30.194;-97.880;2022-09-01T01:35:41;98605.91;;;27.79;54.38
38880;BME280;25887;30.194;-97.880;2022-09-01T01:38:07;98605.13;;;27.77;54.40
38880;BME280;25887;30.194;-97.880;2022-09-01T01:40:34;98598.06;;;27.77;54.02
38880;BME280;25887;30.194;-97.880;2022-09-01T01:43:00;98596.25;;;27.78;54.12
38880;BME280;25887;30.194;-97.880;2022-09-01T01:45:28;98597.13;;;27.79;54.53
38880;BME280;25887;30.194;-97.880;2022-09-01T01:47:54;98585.69;;;27.78;54.40
38880;BME280;25887;30.194;-97.880;2022-09-01T01:50:28;98581.28;;;27.79;54.31
38880;BME280;25887;30.194;-97.880;2022-09-01T01:52:57;98590.06;;;27.79;54.45
38880;BME280;25887;30.194;-97.880;2022-09-01T01:55:24;98585.63;;;27.80;54.61
38880;BME280;25887;30.194;-97.880;2022-09-01T01:57:53;98592.59;;;27.81;54.75
38880;BME280;25887;30.194;-97.880;2022-09-01T02:00:21;98602.19;;;27.82;54.46
38880;BME280;25887;30.194;-97.880;2022-09-01T02:02:48;98605.69;;;27.82;54.26
38880;BME280;25887;30.194;-97.880;2022-09-01T02:05:18;98617.09;;;27.83;54.37
38880;BME280;25887;30.194;-97.880;2022-09-01T02:07:47;98624.16;;;27.82;54.44
38880;BME280;25887;30.194;-97.880;2022-09-01T02:10:13;98623.31;;;27.82;54.36
38880;BME280;25887;30.194;-97.880;2022-09-01T02:12:39;98625.13;;;27.81;54.81
38880;BME280;25887;30.194;-97.880;2022-09-01T02:15:07;98630.50;;;27.80;54.76
38880;BME280;25887;30.194;-97.880;2022-09-01T02:17:33;98628.06;;;27.76;54.78
38880;BME280;25887;30.194;-97.880;2022-09-01T02:19:59;98634.41;;;27.74;54.94
38880;BME280;25887;30.194;-97.880;2022-09-01T02:22:25;98637.13;;;27.72;54.93
38880;BME280;25887;30.194;-97.880;2022-09-01T02:24:50;98650.34;;;27.72;54.69
38880;BME280;25887;30.194;-97.880;2022-09-01T02:27:17;98661.75;;;27.73;54.89
38880;BME280;25887;30.194;-97.880;2022-09-01T02:29:49;98662.59;;;27.73;54.71
38880;BME280;25887;30.194;-97.880;2022-09-01T02:32:18;98670.50;;;27.73;55.22
38880;BME280;25887;30.194;-97.880;2022-09-01T02:34:48;98672.19;;;27.74;55.09
38880;BME280;25887;30.194;-97.880;2022-09-01T02:37:21;98680.13;;;27.74;54.72
38880;BME280;25887;30.194;-97.880;2022-09-01T02:39:50;98687.19;;;27.74;54.92
38880;BME280;25887;30.194;-97.880;2022-09-01T02:42:18;98695.13;;;27.74;55.11
38880;BME280;25887;30.194;-97.880;2022-09-01T02:44:48;98699.75;;;27.70;54.97
38880;BME280;25887;30.194;-97.880;2022-09-01T02:47:14;98696.34;;;27.68;55.29
38880;BME280;25887;30.194;-97.880;2022-09-01T02:49:40;98693.81;;;27.67;55.31
38880;BME280;25887;30.194;-97.880;2022-09-01T02:52:06;98695.78;;;27.63;55.23
38880;BME280;25887;30.194;-97.880;2022-09-01T02:54:32;98693.22;;;27.62;55.13
38880;BME280;25887;30.194;-97.880;2022-09-01T02:56:58;98688.06;;;27.60;55.46
38880;BME280;25887;30.194;-97.880;2022-09-01T02:59:26;98682.97;;;27.57;55.53
38880;BME280;25887;30.194;-97.880;2022-09-01T03:01:53;98683.09;;;27.56;55.13
38880;BME280;25887;30.194;-97.880;2022-09-01T03:04:19;98680.53;;;27.54;55.25
38880;BME280;25887;30.194;-97.880;2022-09-01T03:06:46;98684.13;;;27.53;55.46
38880;BME280;25887;30.194;-97.880;2022-09-01T03:09:13;98673.56;;;27.53;55.48
38880;BME280;25887;30.194;-97.880;2022-09-01T03:11:41;98684.97;;;27.54;55.22
38880;BME280;25887;30.194;-97.880;2022-09-01T03:14:07;98676.97;;;27.55;55.44
38880;BME280;25887;30.194;-97.880;2022-09-01T03:16:33;98676.97;;;27.55;55.13
38880;BME280;25887;30.194;-97.880;2022-09-01T03:18:59;98664.69;;;27.54;55.30
38880;BME280;25887;30.194;-97.880;2022-09-01T03:21:27;98669.13;;;27.54;55.46
38880;BME280;25887;30.194;-97.880;2022-09-01T03:23:53;98664.78;;;27.53;55.67
38880;BME280;25887;30.194;-97.880;2022-09-01T03:26:22;98659.41;;;27.54;55.52
38880;BME280;25887;30.194;-97.880;2022-09-01T03:28:49;98663.78;;;27.55;55.45
38880;BME280;25887;30.194;-97.880;2022-09-01T03:31:16;98653.28;;;27.54;55.82
38880;BME280;25887;30.194;-97.880;2022-09-01T03:33:43;98654.06;;;27.56;55.60
38880;BME280;25887;30.194;-97.880;2022-09-01T03:36:08;98653.22;;;27.55;55.43
38880;BME280;25887;30.194;-97.880;2022-09-01T03:38:47;98651.41;;;27.56;55.50
38880;BME280;25887;30.194;-97.880;2022-09-01T03:41:14;98652.25;;;27.56;55.62
38880;BME280;25887;30.194;-97.880;2022-09-01T03:43:42;98657.53;;;27.56;55.87
38880;BME280;25887;30.194;-97.880;2022-09-01T03:46:08;98653.09;;;27.57;56.01
38880;BME280;25887;30.194;-97.880;2022-09-01T03:48:35;98643.41;;;27.57;55.69
38880;BME280;25887;30.194;-97.880;2022-09-01T03:51:01;98650.47;;;27.57;56.20
38880;BME280;25887;30.194;-97.880;2022-09-01T03:53:28;98644.13;;;27.59;56.14
38880;BME280;25887;30.194;-97.880;2022-09-01T03:55:56;98647.50;;;27.61;55.83
38880;BME280;25887;30.194;-97.880;2022-09-01T03:58:24;98651.00;;;27.62;56.22
38880;BME280;25887;30.194;-97.880;2022-09-01T04:00:51;98635.16;;;27.62;55.89
38880;BME280;25887;30.194;-97.880;2022-09-01T04:03:24;98640.44;;;27.62;56.33
38880;BME280;25887;30.194;-97.880;2022-09-01T04:05:50;98631.66;;;27.61;56.43
38880;BME280;25887;30.194;-97.880;2022-09-01T04:08:17;98627.16;;;27.63;56.37
38880;BME280;25887;30.194;-97.880;2022-09-01T04:10:45;98629.81;;;27.63;56.45
38880;BME280;25887;30.194;-97.880;2022-09-01T04:13:15;98632.34;;;27.65;56.43
38880;BME280;25887;30.194;-97.880;2022-09-01T04:15:41;98622.63;;;27.65;56.22
38880;BME280;25887;30.194;-97.880;2022-09-01T04:18:07;98628.75;;;27.66;56.58
38880;BME280;25887;30.194;-97.880;2022-09-01T04:20:45;98627.72;;;27.68;56.26
38880;BME280;25887;30.194;-97.880;2022-09-01T04:23:20;98625.84;;;27.70;56.33
38880;BME280;25887;30.194;-97.880;2022-09-01T04:25:55;98624.06;;;27.71;56.38
38880;BME280;25887;30.194;-97.880;2022-09-01T04:28:23;98631.03;;;27.72;56.37
38880;BME280;25887;30.194;-97.880;2022-09-01T04:30:54;98631.03;;;27.72;56.74
38880;BME280;25887;30.194;-97.880;2022-09-01T04:33:25;98637.25;;;27.71;56.71
38880;BME280;25887;30.194;-97.880;2022-09-01T04:35:51;98641.56;;;27.72;56.83
38880;BME280;25887;30.194;-97.880;2022-09-01T04:38:21;98647.88;;;27.69;56.83
38880;BME280;25887;30.194;-97.880;2022-09-01T04:40:47;98645.34;;;27.68;56.57
38880;BME280;25887;30.194;-97.880;2022-09-01T04:43:13;98648.06;;;27.66;56.45
38880;BME280;25887;30.194;-97.880;2022-09-01T04:45:40;98650.69;;;27.66;56.85
38880;BME280;25887;30.194;-97.880;2022-09-01T04:48:07;98649.78;;;27.67;56.87
38880;BME280;25887;30.194;-97.880;2022-09-01T04:50:33;98643.56;;;27.68;56.47
38880;BME280;25887;30.194;-97.880;2022-09-01T04:53:00;98648.06;;;27.66;56.49
38880;BME280;25887;30.194;-97.880;2022-09-01T04:55:27;98654.22;;;27.67;56.97
38880;BME280;25887;30.194;-97.880;2022-09-01T04:57:55;98655.06;;;27.67;56.59
38880;BME280;25887;30.194;-97.880;2022-09-01T05:00:22;98647.16;;;27.67;56.65
38880;BME280;25887;30.194;-97.880;2022-09-01T05:02:48;98641.88;;;27.67;56.62
38880;BME280;25887;30.194;-97.880;2022-09-01T05:05:16;98641.94;;;27.66;57.14
38880;BME280;25887;30.194;-97.880;2022-09-01T05:07:42;98640.91;;;27.68;57.16
38880;BME280;25887;30.194;-97.880;2022-09-01T05:10:08;98634.78;;;27.68;57.18
38880;BME280;25887;30.194;-97.880;2022-09-01T05:12:34;98640.91;;;27.68;57.04
38880;BME280;25887;30.194;-97.880;2022-09-01T05:15:00;98636.47;;;27.69;56.81
38880;BME280;25887;30.194;-97.880;2022-09-01T05:17:30;98633.75;;;27.70;57.20
38880;BME280;25887;30.194;-97.880;2022-09-01T05:19:57;98632.03;;;27.69;57.08
38880;BME280;25887;30.194;-97.880;2022-09-01T05:22:23;98631.19;;;27.69;57.28
38880;BME280;25887;30.194;-97.880;2022-09-01T05:24:50;98627.59;;;27.70;57.34
38880;BME280;25887;30.194;-97.880;2022-09-01T05:27:16;98625.91;;;27.69;57.38
38880;BME280;25887;30.194;-97.880;2022-09-01T05:29:43;98631.13;;;27.70;56.96
38880;BME280;25887;30.194;-97.880;2022-09-01T05:32:11;98626.75;;;27.69;57.04
38880;BME280;25887;30.194;-97.880;2022-09-01T05:34:37;98632.03;;;27.69;57.27
38880;BME280;25887;30.194;-97.880;2022-09-01T05:37:05;98637.31;;;27.69;56.91
38880;BME280;25887;30.194;-97.880;2022-09-01T05:39:32;98631.19;;;27.69;57.34
38880;BME280;25887;30.194;-97.880;2022-09-01T05:41:59;98629.50;;;27.68;57.47
38880;BME280;25887;30.194;-97.880;2022-09-01T05:44:25;98628.66;;;27.67;57.26
38880;BME280;25887;30.194;-97.880;2022-09-01T05:46:51;98625.25;;;27.65;57.21
38880;BME280;25887;30.194;-97.880;2022-09-01T05:49:19;98619.25;;;27.63;57.46
38880;BME280;25887;30.194;-97.880;2022-09-01T05:51:46;98624.53;;;27.63;57.58
38880;BME280;25887;30.194;-97.880;2022-09-01T05:54:14;98619.31;;;27.62;57.25
38880;BME280;25887;30.194;-97.880;2022-09-01T05:56:41;98623.75;;;27.61;57.31
38880;BME280;25887;30.194;-97.880;2022-09-01T06:02:10;98622.28;;;27.57;57.49
38880;BME280;25887;30.194;-97.880;2022-09-01T06:04:36;98613.69;;;27.54;57.66
38880;BME280;25887;30.194;-97.880;2022-09-01T06:07:05;98613.91;;;27.51;57.77
38880;BME280;25887;30.194;-97.880;2022-09-01T06:09:41;98612.31;;;27.48;57.80
38880;BME280;25887;30.194;-97.880;2022-09-01T06:12:07;98603.63;;;27.46;57.66
38880;BME280;25887;30.194;-97.880;2022-09-01T06:14:42;98609.03;;;27.44;57.76
38880;BME280;25887;30.194;-97.880;2022-09-01T06:20:05;98599.63;;;27.40;57.48
38880;BME280;25887;30.194;-97.880;2022-09-01T06:22:34;98610.38;;;27.37;57.56
38880;BME280;25887;30.194;-97.880;2022-09-01T06:25:00;98607.84;;;27.36;57.51
38880;BME280;25887;30.194;-97.880;2022-09-01T06:27:34;98604.47;;;27.34;58.01
38880;BME280;25887;30.194;-97.880;2022-09-01T06:30:06;98613.31;;;27.33;57.61
38880;BME280;25887;30.194;-97.880;2022-09-01T06:35:43;98604.75;;;27.29;57.60
38880;BME280;25887;30.194;-97.880;2022-09-01T06:41:12;98595.41;;;27.24;57.80
38880;BME280;25887;30.194;-97.880;2022-09-01T06:43:39;98600.81;;;27.22;58.13
38880;BME280;25887;30.194;-97.880;2022-09-01T06:46:11;98595.63;;;27.20;58.02
38880;BME280;25887;30.194;-97.880;2022-09-01T06:48:53;98602.59;;;27.21;58.15
38880;BME280;25887;30.194;-97.880;2022-09-01T06:54:56;98608.72;;;27.22;57.86
38880;BME280;25887;30.194;-97.880;2022-09-01T06:57:41;98596.38;;;27.23;57.89
38880;BME280;25887;30.194;-97.880;2022-09-01T07:00:11;98598.16;;;27.22;57.82
38880;BME280;25887;30.194;-97.880;2022-09-01T07:02:44;98595.41;;;27.24;58.21
38880;BME280;25887;30.194;-97.880;2022-09-01T07:05:12;98587.50;;;27.24;58.21
38880;BME280;25887;30.194;-97.880;2022-09-01T07:07:41;98581.31;;;27.25;57.94
38880;BME280;25887;30.194;-97.880;2022-09-01T07:10:12;98582.16;;;27.25;57.95
38880;BME280;25887;30.194;-97.880;2022-09-01T07:12:39;98576.88;;;27.25;57.88
38880;BME280;25887;30.194;-97.880;2022-09-01T07:15:10;98582.91;;;27.27;57.98
38880;BME280;25887;30.194;-97.880;2022-09-01T07:17:41;98573.19;;;27.28;57.92
38880;BME280;25887;30.194;-97.880;2022-09-01T07:20:07;98568.75;;;27.28;58.07
38880;BME280;25887;30.194;-97.880;2022-09-01T07:22:34;98559.03;;;27.29;58.36
38880;BME280;25887;30.194;-97.880;2022-09-01T07:25:00;98557.25;;;27.29;58.19
38880;BME280;25887;30.194;-97.880;2022-09-01T07:27:26;98555.47;;;27.30;58.33
38880;BME280;25887;30.194;-97.880;2022-09-01T07:29:55;98551.13;;;27.29;57.98
38880;BME280;25887;30.194;-97.880;2022-09-01T07:32:35;98551.97;;;27.29;58.28
38880;BME280;25887;30.194;-97.880;2022-09-01T07:35:20;98548.50;;;27.29;58.44
38880;BME280;25887;30.194;-97.880;2022-09-01T07:37:55;98549.34;;;27.29;58.06
38880;BME280;25887;30.194;-97.880;2022-09-01T07:40:26;98556.41;;;27.29;58.18
38880;BME280;25887;30.194;-97.880;2022-09-01T07:46:35;98553.97;;;27.26;58.34
38880;BME280;25887;30.194;-97.880;2022-09-01T07:49:01;98552.38;;;27.23;58.56
38880;BME280;25887;30.194;-97.880;2022-09-01T07:51:27;98553.31;;;27.22;58.12
38880;BME280;25887;30.194;-97.880;2022-09-01T07:53:54;98549.00;;;27.21;58.23
38880;BME280;25887;30.194;-97.880;2022-09-01T07:56:21;98546.47;;;27.19;58.24
38880;BME280;25887;30.194;-97.880;2022-09-01T07:58:47;98546.47;;;27.19;58.54
38880;BME280;25887;30.194;-97.880;2022-09-01T08:01:15;98547.31;;;27.20;58.61
38880;BME280;25887;30.194;-97.880;2022-09-01T08:03:47;98545.72;;;27.17;58.58
38880;BME280;25887;30.194;-97.880;2022-09-01T08:06:14;98546.56;;;27.18;58.15
38880;BME280;25887;30.194;-97.880;2022-09-01T08:08:43;98537.81;;;27.17;58.23
38880;BME280;25887;30.194;-97.880;2022-09-01T08:11:14;98541.41;;;27.16;58.54
38880;BME280;25887;30.194;-97.880;2022-09-01T08:13:40;98539.59;;;27.17;58.46
38880;BME280;25887;30.194;-97.880;2022-09-01T08:16:06;98536.13;;;27.16;58.37
38880;BME280;25887;30.194;-97.880;2022-09-01T08:18:32;98530.84;;;27.16;58.64
38880;BME280;25887;30.194;-97.880;2022-09-01T08:20:58;98530.84;;;27.16;58.34
38880;BME280;25887;30.194;-97.880;2022-09-01T08:23:24;98529.06;;;27.17;58.62
38880;BME280;25887;30.194;-97.880;2022-09-01T08:25:51;98529.06;;;27.17;58.49
38880;BME280;25887;30.194;-97.880;2022-09-01T08:28:18;98528.22;;;27.16;58.66
38880;BME280;25887;30.194;-97.880;2022-09-01T08:30:45;98528.22;;;27.16;58.32
38880;BME280;25887;30.194;-97.880;2022-09-01T08:33:12;98524.72;;;27.16;58.45
38880;BME280;25887;30.194;-97.880;2022-09-01T08:35:39;98522.94;;;27.16;58.45
38880;BME280;25887;30.194;-97.880;2022-09-01T08:38:05;98527.38;;;27.16;58.72
38880;BME280;25887;30.194;-97.880;2022-09-01T08:40:31;98523.00;;;27.15;58.83
38880;BME280;25887;30.194;-97.880;2022-09-01T08:45:46;98518.78;;;27.12;58.82
38880;BME280;25887;30.194;-97.880;2022-09-01T08:48:15;98514.47;;;27.11;58.85
38880;BME280;25887;30.194;-97.880;2022-09-01T08:50:43;98502.22;;;27.10;58.84
38880;BME280;25887;30.194;-97.880;2022-09-01T08:53:17;98505.81;;;27.09;58.81
38880;BME280;25887;30.194;-97.880;2022-09-01T08:55:46;98501.38;;;27.10;58.59
38880;BME280;25887;30.194;-97.880;2022-09-01T08:58:15;98504.13;;;27.08;58.69
38880;BME280;25887;30.194;-97.880;2022-09-01T09:00:42;98496.22;;;27.08;58.51
38880;BME280;25887;30.194;-97.880;2022-09-01T09:11:00;98502.53;;;27.06;58.55
38880;BME280;25887;30.194;-97.880;2022-09-01T09:16:21;98501.78;;;27.04;58.93
38880;BME280;25887;30.194;-97.880;2022-09-01T09:18:54;98498.25;;;27.03;58.97
38880;BME280;25887;30.194;-97.880;2022-09-01T09:21:38;98503.53;;;27.03;59.00
38880;BME280;25887;30.194;-97.880;2022-09-01T09:26:49;98506.34;;;27.00;58.92
38880;BME280;25887;30.194;-97.880;2022-09-01T09:29:17;98499.41;;;26.99;58.72
38880;BME280;25887;30.194;-97.880;2022-09-01T09:31:44;98505.50;;;27.00;58.93
38880;BME280;25887;30.194;-97.880;2022-09-01T09:36:59;98505.72;;;26.97;58.95
38880;BME280;25887;30.194;-97.880;2022-09-01T09:39:25;98503.09;;;26.97;59.08
38880;BME280;25887;30.194;-97.880;2022-09-01T09:42:07;98501.41;;;26.96;58.79
38880;BME280;25887;30.194;-97.880;2022-09-01T09:44:39;98511.09;;;26.95;59.14
38880;BME280;25887;30.194;-97.880;2022-09-01T09:47:08;98514.69;;;26.94;58.60
38880;BME280;25887;30.194;-97.880;2022-09-01T09:49:35;98519.97;;;26.94;58.83
38880;BME280;25887;30.194;-97.880;2022-09-01T09:54:28;98526.19;;;26.93;59.08
38880;BME280;25887;30.194;-97.880;2022-09-01T09:57:05;98526.19;;;26.93;58.79
38880;BME280;25887;30.194;-97.880;2022-09-01T09:59:37;98523.63;;;26.91;58.78
38880;BME280;25887;30.194;-97.880;2022-09-01T10:04:55;98530.69;;;26.91;58.81
38880;BME280;25887;30.194;-97.880;2022-09-01T10:07:29;98528.06;;;26.91;59.03
38880;BME280;25887;30.194;-97.880;2022-09-01T10:09:56;98538.59;;;26.91;59.08
38880;BME280;25887;30.194;-97.880;2022-09-01T10:12:23;98532.59;;;26.89;58.94
38880;BME280;25887;30.194;-97.880;2022-09-01T10:19:56;98533.53;;;26.88;59.18
38880;BME280;25887;30.194;-97.880;2022-09-01T10:22:29;98535.31;;;26.87;59.12
38880;BME280;25887;30.194;-97.880;2022-09-01T10:24:56;98535.44;;;26.86;59.28
38880;BME280;25887;30.194;-97.880;2022-09-01T10:27:26;98537.22;;;26.85;58.97
38880;BME280;25887;30.194;-97.880;2022-09-01T10:32:24;98545.13;;;26.85;58.96
38880;BME280;25887;30.194;-97.880;2022-09-01T10:34:51;98544.28;;;26.85;58.97
38880;BME280;25887;30.194;-97.880;2022-09-01T10:37:17;98545.97;;;26.86;59.36
38880;BME280;25887;30.194;-97.880;2022-09-01T10:42:28;98553.13;;;26.84;59.02
38880;BME280;25887;30.194;-97.880;2022-09-01T10:44:54;98559.22;;;26.84;59.31
38880;BME280;25887;30.194;-97.880;2022-09-01T10:47:25;98558.38;;;26.84;59.24
38880;BME280;25887;30.194;-97.880;2022-09-01T10:55:05;98575.16;;;26.83;59.05
38880;BME280;25887;30.194;-97.880;2022-09-01T11:05:57;98578.84;;;26.80;59.18
38880;BME280;25887;30.194;-97.880;2022-09-01T11:08:39;98577.03;;;26.81;59.47
38880;BME280;25887;30.194;-97.880;2022-09-01T11:16:42;98606.88;;;26.81;59.23
38880;BME280;25887;30.194;-97.880;2022-09-01T11:18:49;98607.72;;;26.82;59.50
38880;BME280;25887;30.194;-97.880;2022-09-01T11:21:28;98610.47;;;26.80;59.18
38880;BME280;25887;30.194;-97.880;2022-09-01T11:26:47;98611.41;;;26.79;59.26
38880;BME280;25887;30.194;-97.880;2022-09-01T11:31:57;98618.47;;;26.79;59.62
38880;BME280;25887;30.194;-97.880;2022-09-01T11:34:23;98615.00;;;26.78;59.31
38880;BME280;25887;30.194;-97.880;2022-09-01T11:36:54;98608.03;;;26.77;59.25
38880;BME280;25887;30.194;-97.880;2022-09-01T11:39:30;98609.81;;;26.77;59.30
38880;BME280;25887;30.194;-97.880;2022-09-01T11:47:10;98605.56;;;26.74;59.64
38880;BME280;25887;30.194;-97.880;2022-09-01T11:49:50;98609.91;;;26.75;59.64
38880;BME280;25887;30.194;-97.880;2022-09-01T11:52:17;98605.47;;;26.76;59.30
38880;BME280;25887;30.194;-97.880;2022-09-01T11:54:44;98603.69;;;26.76;59.50
38880;BME280;25887;30.194;-97.880;2022-09-01T11:57:32;98605.47;;;26.76;59.48
38880;BME280;25887;30.194;-97.880;2022-09-01T11:59:59;98605.47;;;26.76;59.60
38880;BME280;25887;30.194;-97.880;2022-09-01T12:02:33;98615.06;;;26.77;59.65
38880;BME280;25887;30.194;-97.880;2022-09-01T12:05:00;98607.16;;;26.77;59.49
38880;BME280;25887;30.194;-97.880;2022-09-01T12:07:29;98617.72;;;26.77;59.53
38880;BME280;25887;30.194;-97.880;2022-09-01T12:13:10;98622.97;;;26.77;59.60
38880;BME280;25887;30.194;-97.880;2022-09-01T12:16:06;98622.25;;;26.75;59.55
38880;BME280;25887;30.194;-97.880;2022-09-01T12:19:23;98624.78;;;26.76;59.69
38880;BME280;25887;30.194;-97.880;2022-09-01T12:27:54;98641.44;;;26.77;59.50
38880;BME280;25887;30.194;-97.880;2022-09-01T12:30:45;98644.06;;;26.77;59.84
38880;BME280;25887;30.194;-97.880;2022-09-01T12:33:35;98645.78;;;26.78;59.84
38880;BME280;25887;30.194;-97.880;2022-09-01T12:41:43;98656.13;;;26.81;59.94
38880;BME280;25887;30.194;-97.880;2022-09-01T12:50:00;98664.78;;;26.83;59.94
38880;BME280;25887;30.194;-97.880;2022-09-01T12:52:27;98658.56;;;26.84;59.65
38880;BME280;25887;30.194;-97.880;2022-09-01T12:55:15;98663.78;;;26.85;59.92
38880;BME280;25887;30.194;-97.880;2022-09-01T12:57:40;98672.69;;;26.97;59.93
38880;BME280;25887;30.194;-97.880;2022-09-01T13:02:50;98668.25;;;28.47;57.81
38880;BME280;25887;30.194;-97.880;2022-09-01T13:07:58;98676.72;;;29.76;56.24
38880;BME280;25887;30.194;-97.880;2022-09-01T13:10:26;98678.53;;;29.76;56.49
38880;BME280;25887;30.194;-97.880;2022-09-01T13:12:53;98688.75;;;29.56;57.23
38880;BME280;25887;30.194;-97.880;2022-09-01T13:15:19;98685.84;;;29.35;57.78
38880;BME280;25887;30.194;-97.880;2022-09-01T13:17:46;98685.69;;;29.13;58.05
38880;BME280;25887;30.194;-97.880;2022-09-01T13:20:12;98680.63;;;28.97;58.62
38880;BME280;25887;30.194;-97.880;2022-09-01T13:22:38;98689.28;;;28.86;58.22
38880;BME280;25887;30.194;-97.880;2022-09-01T13:25:06;98696.06;;;28.78;58.79
38880;BME280;25887;30.194;-97.880;2022-09-01T13:27:35;98687.81;;;28.70;58.60
38880;BME280;25887;30.194;-97.880;2022-09-01T13:30:02;98679.44;;;28.63;59.07
38880;BME280;25887;30.194;-97.880;2022-09-01T13:32:30;98679.91;;;28.57;59.17
38880;BME280;25887;30.194;-97.880;2022-09-01T13:34:56;98675.75;;;28.53;59.12
38880;BME280;25887;30.194;-97.880;2022-09-01T13:37:21;98678.63;;;28.50;59.13
38880;BME280;25887;30.194;-97.880;2022-09-01T13:39:48;98673.53;;;28.47;59.12
38880;BME280;25887;30.194;-97.880;2022-09-01T13:42:14;98680.84;;;28.43;59.23
38880;BME280;25887;30.194;-97.880;2022-09-01T13:44:40;98681.03;;;28.40;58.98
38880;BME280;25887;30.194;-97.880;2022-09-01T13:47:06;98688.34;;;28.37;59.04
38880;BME280;25887;30.194;-97.880;2022-09-01T13:49:32;98691.19;;;28.34;59.39
38880;BME280;25887;30.194;-97.880;2022-09-01T13:51:59;98692.22;;;28.31;59.39
38880;BME280;25887;30.194;-97.880;2022-09-01T13:54:25;98684.47;;;28.28;59.23
38880;BME280;25887;30.194;-97.880;2022-09-01T13:56:51;98684.59;;;28.26;59.25
38880;BME280;25887;30.194;-97.880;2022-09-01T13:59:16;98686.47;;;28.24;59.13
38880;BME280;25887;30.194;-97.880;2022-09-01T14:01:42;98690.06;;;28.23;59.52
38880;BME280;25887;30.194;-97.880;2022-09-01T14:04:10;98687.53;;;28.22;59.59
38880;BME280;25887;30.194;-97.880;2022-09-01T14:06:40;98690.28;;;28.20;59.63
38880;BME280;25887;30.194;-97.880;2022-09-01T14:09:12;98688.59;;;28.19;59.65
38880;BME280;25887;30.194;-97.880;2022-09-01T14:11:38;98689.44;;;28.20;59.77
38880;BME280;25887;30.194;-97.880;2022-09-01T14:14:04;98687.66;;;28.20;59.88
38880;BME280;25887;30.194;-97.880;2022-09-01T14:16:30;98695.47;;;28.22;59.66
38880;BME280;25887;30.194;-97.880;2022-09-01T14:18:57;98689.13;;;28.24;59.80
38880;BME280;25887;30.194;-97.880;2022-09-01T14:21:24;98696.84;;;28.27;59.51
38880;BME280;25887;30.194;-97.880;2022-09-01T14:23:50;98695.06;;;28.28;59.51
38880;BME280;25887;30.194;-97.880;2022-09-01T14:26:15;98697.50;;;28.31;59.52
38880;BME280;25887;30.194;-97.880;2022-09-01T14:28:43;98694.75;;;28.33;59.75
38880;BME280;25887;30.194;-97.880;2022-09-01T14:31:12;98691.09;;;28.35;59.35
38880;BME280;25887;30.194;-97.880;2022-09-01T14:33:39;98692.66;;;28.38;59.77
38880;BME280;25887;30.194;-97.880;2022-09-01T14:36:15;98695.13;;;28.41;59.54
38880;BME280;25887;30.194;-97.880;2022-09-01T14:38:51;98700.19;;;28.44;59.66
38880;BME280;25887;30.194;-97.880;2022-09-01T14:41:21;98707.03;;;28.46;59.55